Djangou Airport


Codes: DXDP/
Name: Djangou Airport
City: Dapaong
Country: Togo
Elevation: 886 ft.
Wikipedia:

Photos at Djangou Airport


   Photos courtesy of SpottingLog. You can add your own sightings and photos by signing up for a free trial today.



No photos found.

Weather at Djangou Airport


Time (UTC)DescriptionTempratureWindCloud coverageVisibilityPressureHumidity
17-Jun-2024 06:00Overcast Clouds25°C7 mph, S94%10000m1011hPa80%
17-Jun-2024 09:00Overcast Clouds25°C7 mph, S99%10000m1012hPa77%
17-Jun-2024 12:00Overcast Clouds29°C9 mph, SW95%10000m1012hPa62%
17-Jun-2024 15:00Overcast Clouds31°C7 mph, S100%10000m1010hPa52%
17-Jun-2024 18:00Overcast Clouds30°C4 mph, S96%10000m1010hPa56%
17-Jun-2024 21:00Light Rain27°C4 mph, SE19%10000m1013hPa67%
18-Jun-2024 00:00Light Rain27°C2 mph, S58%10000m1011hPa68%
18-Jun-2024 03:00Light Rain26°C2 mph, S96%10000m1011hPa74%
18-Jun-2024 06:00Overcast Clouds25°C4 mph, S97%10000m1012hPa78%
18-Jun-2024 09:00Broken Clouds30°C9 mph, SW75%10000m1013hPa60%
18-Jun-2024 12:00Broken Clouds34°C7 mph, S57%10000m1011hPa44%
18-Jun-2024 15:00Broken Clouds36°C7 mph, SE55%10000m1009hPa38%
18-Jun-2024 18:00Scattered Clouds34°C2 mph, E40%10000m1009hPa43%
18-Jun-2024 21:00Light Rain32°C2 mph, E15%10000m1009hPa48%
19-Jun-2024 00:00Light Rain29°C7 mph, S25%10000m1010hPa60%
19-Jun-2024 03:00Broken Clouds27°C7 mph, S77%10000m1009hPa70%
19-Jun-2024 06:00Overcast Clouds26°C11 mph, S88%10000m1011hPa78%
19-Jun-2024 09:00Overcast Clouds29°C13 mph, SW100%10000m1012hPa66%
19-Jun-2024 12:00Overcast Clouds33°C11 mph, SW95%10000m1010hPa47%
19-Jun-2024 15:00Overcast Clouds34°C9 mph, S100%10000m1008hPa43%
19-Jun-2024 18:00Overcast Clouds33°C7 mph, S95%10000m1009hPa48%
19-Jun-2024 21:00Scattered Clouds30°C7 mph, S46%10000m1010hPa58%
20-Jun-2024 00:00Broken Clouds28°C9 mph, S73%10000m1010hPa68%
20-Jun-2024 03:00Overcast Clouds27°C9 mph, S94%10000m1009hPa74%
20-Jun-2024 06:00Overcast Clouds26°C11 mph, S94%10000m1010hPa74%
20-Jun-2024 09:00Scattered Clouds30°C13 mph, SW36%10000m1011hPa60%
20-Jun-2024 12:00Broken Clouds34°C11 mph, S57%10000m1010hPa46%
20-Jun-2024 15:00Overcast Clouds36°C7 mph, S89%10000m1007hPa38%
20-Jun-2024 18:00Broken Clouds35°C4 mph, S58%10000m1007hPa42%
20-Jun-2024 21:00Light Rain27°C11 mph, SW51%10000m1010hPa69%
21-Jun-2024 00:00Light Rain27°C4 mph, S43%10000m1011hPa64%
21-Jun-2024 03:00Light Rain25°C7 mph, SW51%10000m1011hPa70%
21-Jun-2024 06:00Light Rain25°C7 mph, S60%10000m1012hPa81%
21-Jun-2024 09:00Overcast Clouds28°C13 mph, S96%10000m1015hPa72%
21-Jun-2024 12:00Overcast Clouds31°C13 mph, S98%10000m1013hPa56%
21-Jun-2024 15:00Overcast Clouds33°C11 mph, SE88%10000m1009hPa43%
21-Jun-2024 18:00Broken Clouds29°C11 mph, SE81%10000m1009hPa58%
21-Jun-2024 21:00Few Clouds27°C7 mph, S20%10000m1012hPa69%
22-Jun-2024 00:00Broken Clouds27°C4 mph, S58%10000m1012hPa68%
22-Jun-2024 03:00Overcast Clouds26°C4 mph, S97%10000m1011hPa71%